Time;durP1;ratioP1;P1;durP2;ratioP2;P2;SDS_P1;SDS_P2;PMS_P1;PMS_P2;Temp;Humidity;BMP_temperature;BMP_pressure;BME280_temperature;BME280_humidity;BME280_pressure;Samples;Min_cycle;Max_cycle;Signal;HPM_P1;HPM_P2
2021/01/18 00:00:23;;;;;;;28.05;15.48;;;1.30;85.70;;;-0.82;85.12;96455.75;4988541;28;20038;-69
2021/01/18 00:02:49;;;;;;;23.58;14.45;;;1.40;85.50;;;-0.80;85.26;96459.88;4987770;28;20398;-69
2021/01/18 00:05:15;;;;;;;25.35;13.60;;;1.40;85.30;;;-0.78;85.25;96458.00;4987715;28;20035;-69
2021/01/18 00:07:51;;;;;;;21.65;13.60;;;1.40;85.50;;;-0.76;85.38;96460.47;4972181;28;20034;-69
2021/01/18 00:10:22;;;;;;;21.60;12.85;;;1.40;85.50;;;-0.73;86.11;96453.31;4988127;28;20023;-69
2021/01/18 00:12:51;;;;;;;21.60;13.07;;;1.50;85.50;;;-0.71;85.68;96455.78;4989476;28;20026;-69
2021/01/18 00:15:18;;;;;;;20.80;12.18;;;1.50;85.50;;;-0.69;85.42;96462.50;4987730;28;20124;-69
2021/01/18 00:17:44;;;;;;;21.08;12.75;;;1.50;85.60;;;-0.65;85.30;96458.78;4983650;28;20129;-69
2021/01/18 00:20:11;;;;;;;18.75;12.70;;;1.60;85.60;;;-0.64;85.23;96459.59;4989568;28;20026;-69
2021/01/18 00:22:38;;;;;;;19.88;12.00;;;1.60;85.60;;;-0.60;85.44;96460.19;4984214;28;20045;-69
2021/01/18 00:25:12;;;;;;;19.13;11.60;;;1.50;85.80;;;-0.57;86.66;96465.16;4989337;28;20080;-69
2021/01/18 00:27:38;;;;;;;19.50;11.90;;;1.60;85.80;;;-0.55;85.46;96460.69;4976665;28;20034;-70
2021/01/18 00:30:19;;;;;;;17.23;11.60;;;1.50;86.00;;;-0.53;87.06;96461.41;4986981;28;20034;-69
2021/01/18 00:32:44;;;;;;;17.13;11.60;;;1.60;86.20;;;-0.51;85.73;96454.34;4978426;28;20088;-69
2021/01/18 00:35:12;;;;;;;16.52;10.43;;;1.50;86.20;;;-0.49;85.84;96458.47;4965539;28;20030;-69
2021/01/18 00:37:44;;;;;;;15.45;10.32;;;1.60;86.10;;;-0.47;86.01;96451.44;4982059;28;20030;-70
2021/01/18 00:40:11;;;;;;;17.23;10.95;;;1.70;85.90;;;-0.44;85.59;96456.41;4983814;28;20494;-70
2021/01/18 00:42:39;;;;;;;20.02;10.68;;;1.70;86.00;;;-0.42;85.75;96449.34;4988035;28;20042;-69
2021/01/18 00:45:06;;;;;;;15.32;10.05;;;1.70;86.20;;;-0.41;85.91;96451.00;4980389;28;20045;-70
2021/01/18 00:47:32;;;;;;;15.75;10.10;;;1.70;86.40;;;-0.38;85.65;96452.53;4971696;28;20510;-70
2021/01/18 00:49:57;;;;;;;15.82;10.55;;;1.70;86.40;;;-0.37;85.49;96462.75;4989426;28;20038;-70
2021/01/18 00:52:23;;;;;;;13.73;9.82;;;1.70;86.30;;;-0.37;85.93;96460.16;4988374;28;20030;-69
2021/01/18 00:54:49;;;;;;;16.58;10.65;;;1.70;86.60;;;-0.35;85.75;96454.88;4989416;28;20122;-70
2021/01/18 00:57:15;;;;;;;15.23;9.63;;;1.60;86.50;;;-0.35;85.79;96450.53;4987244;28;20097;-69
2021/01/18 00:59:40;;;;;;;13.70;9.27;;;1.70;86.50;;;-0.31;85.50;96458.88;4989209;28;20081;-70
2021/01/18 01:02:06;;;;;;;14.10;10.18;;;1.80;86.10;;;-0.30;85.79;96468.28;4988056;28;20066;-69
2021/01/18 01:04:32;;;;;;;13.75;9.40;;;1.70;86.20;;;-0.28;85.66;96468.16;4991107;28;20108;-68
2021/01/18 01:06:57;;;;;;;14.40;9.13;;;1.70;86.50;;;-0.28;85.68;96466.41;4987215;28;20038;-70
2021/01/18 01:09:23;;;;;;;14.15;9.55;;;1.80;86.10;;;-0.26;85.80;96474.88;4988655;28;20084;-70
2021/01/18 01:11:49;;;;;;;14.45;8.73;;;1.80;86.20;;;-0.26;86.25;96474.03;4986857;28;20088;-70
2021/01/18 01:14:15;;;;;;;12.27;8.63;;;1.80;86.20;;;-0.24;85.62;96480.75;4989149;28;20112;-70
2021/01/18 01:16:43;;;;;;;13.98;9.02;;;1.80;86.10;;;-0.21;86.09;96470.22;4987876;28;20042;-70
2021/01/18 01:19:09;;;;;;;15.27;8.95;;;1.90;85.80;;;-0.21;86.00;96467.63;4989373;28;20037;-70
2021/01/18 01:21:35;;;;;;;13.13;9.07;;;1.80;86.10;;;-0.19;85.66;96478.69;4985919;28;20475;-70
2021/01/18 01:24:01;;;;;;;15.25;8.70;;;1.80;86.10;;;-0.18;85.71;96469.97;4988414;28;20034;-70
2021/01/18 01:26:27;;;;;;;14.20;8.55;;;1.90;85.80;;;-0.17;85.78;96479.38;4987846;28;20399;-70
2021/01/18 01:28:53;;;;;;;13.45;8.70;;;1.90;85.80;;;-0.15;85.78;96480.09;4987311;28;20088;-69
2021/01/18 01:31:19;;;;;;;11.25;8.25;;;1.90;85.60;;;-0.15;85.86;96477.50;4987207;28;20046;-70
2021/01/18 01:33:45;;;;;;;13.32;7.82;;;1.90;85.80;;;-0.13;85.71;96475.63;4985143;28;20058;-70
2021/01/18 01:36:11;;;;;;;11.73;8.02;;;1.90;85.80;;;-0.11;85.97;96478.91;4987099;28;20532;-70
2021/01/18 01:38:37;;;;;;;12.48;8.25;;;2.00;85.60;;;-0.11;85.94;96473.75;4987835;28;20038;-70
2021/01/18 01:41:03;;;;;;;11.38;7.68;;;2.00;85.60;;;-0.11;85.62;96473.75;4984947;28;20038;-71
2021/01/18 01:43:29;;;;;;;13.38;8.65;;;1.90;85.70;;;-0.10;85.81;96475.41;4987070;28;20030;-71
2021/01/18 01:45:55;;;;;;;13.40;8.23;;;1.90;85.80;;;-0.14;85.76;96466.22;4986639;28;20030;-70
2021/01/18 01:48:20;;;;;;;12.13;7.82;;;1.90;85.60;;;-0.07;85.66;96472.56;4986917;28;20026;-70
2021/01/18 01:50:46;;;;;;;11.70;7.85;;;2.00;85.80;;;-0.07;86.17;96476.91;4985631;28;20569;-70
2021/01/18 01:53:21;;;;;;;11.27;8.10;;;2.00;85.50;;;-0.06;86.58;96476.81;4967218;28;20031;-71
2021/01/18 01:55:47;;;;;;;13.52;8.15;;;2.00;85.40;;;-0.04;85.59;96485.28;4986463;28;20054;-71
2021/01/18 01:58:12;;;;;;;11.05;7.70;;;2.00;85.40;;;-0.03;85.50;96486.09;4967468;28;20562;-70
2021/01/18 02:00:39;;;;;;;12.85;8.45;;;2.00;85.30;;;-0.02;85.94;96485.97;4988248;28;20027;-70
2021/01/18 02:03:41;;;;;;;14.27;8.32;;;2.10;85.30;;;-0.02;87.04;96478.22;4969620;28;20516;-70
2021/01/18 02:06:08;;;;;;;11.85;7.88;;;2.10;85.20;;;-0.01;85.52;96481.63;4971749;28;20034;-71
2021/01/18 02:08:34;;;;;;;11.98;8.45;;;2.00;85.30;;;0.01;85.57;96484.94;5006053;28;20571;-71
2021/01/18 02:11:00;;;;;;;13.57;8.23;;;2.10;85.20;;;0.02;85.88;96488.38;5007625;28;20137;-71
2021/01/18 02:14:01;;;;;;;15.20;8.77;;;2.00;85.30;;;0.03;87.19;96487.44;4991568;28;20462;-71
2021/01/18 02:16:56;;;;;;;13.57;8.32;;;2.10;85.40;;;0.03;86.86;96480.50;5000479;28;20684;-70
2021/01/18 02:19:54;;;;;;;15.57;8.77;;;2.10;85.50;;;0.05;87.45;96477.78;5035353;28;20130;-71
2021/01/18 02:22:22;;;;;;;14.63;9.45;;;2.10;85.50;;;0.06;85.62;96485.44;5002721;28;20449;-70
2021/01/18 02:25:09;;;;;;;15.20;9.00;;;2.10;85.30;;;0.05;86.87;96486.38;5005934;28;20055;-70
2021/01/18 02:28:08;;;;;;;13.85;9.02;;;2.10;85.60;;;0.06;87.09;96480.25;5024524;28;20037;-70
2021/01/18 02:31:31;;;;;;;12.77;8.70;;;2.00;85.80;;;0.05;86.88;96493.31;5002454;28;20601;-70
2021/01/18 02:34:19;;;;;;;15.57;9.75;;;2.00;85.90;;;0.05;86.63;96498.47;5000140;28;20417;-70
2021/01/18 02:37:51;;;;;;;15.90;8.38;;;2.00;85.80;;;0.06;87.14;96494.94;4989679;28;20065;-70
2021/01/18 02:40:24;;;;;;;13.85;8.73;;;2.10;85.70;;;0.07;86.41;96494.00;5002557;28;20041;-70
2021/01/18 02:43:02;;;;;;;13.63;8.57;;;2.10;85.60;;;0.08;87.10;96500.81;5008080;28;20136;-70
2021/01/18 02:45:28;;;;;;;13.73;8.93;;;2.10;85.50;;;0.07;85.83;96496.59;5003541;28;20038;-70
2021/01/18 02:47:54;;;;;;;17.27;9.65;;;2.10;85.60;;;0.09;85.88;96498.13;5016330;28;20076;-71
2021/01/18 02:50:20;;;;;;;15.35;8.65;;;2.10;85.40;;;0.09;85.42;96502.47;4999320;28;20030;-71
2021/01/18 02:52:45;;;;;;;13.40;8.65;;;2.10;85.60;;;0.10;85.79;96499.78;5003867;28;20025;-72
2021/01/18 02:55:12;;;;;;;16.40;9.82;;;2.20;85.40;;;0.11;85.56;96506.59;5006829;28;20172;-71
2021/01/18 02:57:41;;;;;;;17.40;9.50;;;2.10;85.40;;;0.12;85.48;96507.41;5001662;28;20042;-71
2021/01/18 03:00:14;;;;;;;17.02;9.90;;;2.20;85.50;;;0.13;85.88;96506.47;4985952;28;20065;-71
2021/01/18 03:02:57;;;;;;;20.13;11.98;;;2.10;85.50;;;0.12;86.19;96494.47;5021023;28;20486;-71
2021/01/18 03:05:40;;;;;;;13.32;8.30;;;2.10;85.60;;;0.11;86.38;96495.41;4989606;28;20141;-71
2021/01/18 03:08:29;;;;;;;15.13;8.90;;;2.10;85.60;;;0.12;87.36;96495.31;4982825;28;20045;-71
2021/01/18 03:11:11;;;;;;;20.65;12.00;;;2.10;85.60;;;0.13;87.23;96501.31;4999531;28;20128;-71
2021/01/18 03:13:57;;;;;;;10.88;7.35;;;2.20;85.60;;;0.13;86.69;96489.19;5000644;28;20524;-71
2021/01/18 03:16:25;;;;;;;11.00;6.68;;;2.10;85.30;;;0.08;85.73;96487.91;5003287;28;20042;-71
2021/01/18 03:18:52;;;;;;;12.02;7.43;;;2.10;85.50;;;0.14;86.03;96492.59;5012132;28;20030;-71
2021/01/18 03:21:18;;;;;;;11.68;7.00;;;2.10;85.30;;;0.13;85.84;96496.13;4992411;28;20483;-71
2021/01/18 03:23:44;;;;;;;11.25;7.40;;;2.10;85.50;;;0.13;85.40;96496.13;4969480;28;20039;-71
2021/01/18 03:26:09;;;;;;;12.10;7.30;;;2.10;85.40;;;0.12;85.70;96492.72;4986622;28;20046;-71
2021/01/18 03:28:35;;;;;;;14.07;8.38;;;2.10;85.60;;;0.09;85.97;96484.38;4989405;28;20125;-71
2021/01/18 03:31:01;;;;;;;16.60;9.68;;;2.10;85.40;;;0.13;85.32;96491.78;4989763;28;20113;-71
2021/01/18 03:33:27;;;;;;;13.65;8.40;;;2.10;85.10;;;0.13;85.87;96496.13;4989117;28;20034;-71
2021/01/18 03:35:53;;;;;;;11.93;7.18;;;2.10;85.10;;;0.13;85.54;96496.13;4989031;28;20418;-71
2021/01/18 03:38:19;;;;;;;12.10;6.80;;;2.10;85.10;;;0.14;85.84;96502.94;4990050;28;20104;-71
2021/01/18 03:40:46;;;;;;;10.35;6.55;;;2.10;85.40;;;0.14;85.37;96497.78;4989356;28;20678;-71
2021/01/18 03:43:12;;;;;;;14.10;8.68;;;2.10;85.20;;;0.14;85.37;96501.19;4969901;28;20065;-71
2021/01/18 03:45:40;;;;;;;12.05;6.57;;;2.10;85.00;;;0.15;85.45;96499.41;4989662;28;20026;-71
2021/01/18 03:48:07;;;;;;;9.32;5.45;;;2.20;84.80;;;0.16;85.28;96506.25;4972391;28;20069;-71
2021/01/18 03:50:34;;;;;;;10.48;6.05;;;2.10;84.80;;;0.15;85.23;96499.41;4987161;28;20038;-71
2021/01/18 03:53:00;;;;;;;11.38;6.82;;;2.10;84.90;;;0.15;85.80;96495.06;4988751;28;20395;-72
2021/01/18 03:55:25;;;;;;;10.25;6.00;;;2.10;84.80;;;0.11;85.74;96488.47;4988596;28;20034;-71
2021/01/18 03:57:52;;;;;;;11.85;6.35;;;2.10;84.90;;;0.10;85.82;96493.78;4968349;28;20033;-71
2021/01/18 04:00:21;;;;;;;10.23;5.95;;;2.10;84.90;;;0.16;85.43;96495.91;4983495;28;20502;-71
2021/01/18 04:02:47;;;;;;;8.43;5.65;;;2.10;84.80;;;0.14;85.32;96497.78;4982262;28;20586;-71
2021/01/18 04:05:13;;;;;;;9.68;6.03;;;2.10;85.20;;;0.16;85.10;96501.06;4989234;28;20031;-71
2021/01/18 04:07:41;;;;;;;11.82;6.28;;;2.00;85.10;;;0.16;85.22;96501.06;4988014;28;20117;-71
2021/01/18 04:10:07;;;;;;;11.10;6.40;;;2.00;85.10;;;0.16;85.15;96495.91;4988606;28;20035;-72
2021/01/18 04:12:33;;;;;;;9.90;6.25;;;2.00;85.20;;;0.14;85.72;96508.13;4990038;28;20081;-71
2021/01/18 04:14:59;;;;;;;11.18;6.45;;;2.00;85.20;;;0.14;85.52;96505.53;4988048;28;20030;-71
2021/01/18 04:17:24;;;;;;;9.93;6.38;;;2.00;85.30;;;0.15;85.57;96504.59;4986872;28;20584;-71
2021/01/18 04:19:50;;;;;;;12.38;5.60;;;2.00;85.10;;;0.16;84.96;96506.25;4983937;28;20034;-71
2021/01/18 04:22:16;;;;;;;8.30;5.45;;;2.00;85.00;;;0.16;85.39;96501.06;4988710;28;20053;-72
2021/01/18 04:24:42;;;;;;;11.60;5.70;;;2.10;85.00;;;0.15;84.92;96500.25;4989480;28;20092;-71
2021/01/18 04:27:08;;;;;;;11.02;6.15;;;2.00;84.90;;;0.16;85.14;96506.25;4986553;28;20034;-69
2021/01/18 04:29:34;;;;;;;11.27;6.65;;;2.10;84.80;;;0.16;85.38;96511.41;4987892;28;20031;-70
2021/01/18 04:32:02;;;;;;;9.40;5.72;;;2.10;84.70;;;0.17;85.36;96510.47;4987547;28;20453;-70
2021/01/18 04:34:27;;;;;;;14.27;6.10;;;2.10;84.90;;;0.16;84.94;96501.88;4992703;28;20038;-70
2021/01/18 04:36:53;;;;;;;9.57;5.82;;;2.10;84.70;;;0.17;85.12;96510.47;4987055;28;20565;-70
2021/01/18 04:39:19;;;;;;;9.85;5.75;;;2.10;84.50;;;0.17;85.26;96508.72;4990041;28;20565;-71
2021/01/18 04:41:45;;;;;;;9.68;6.13;;;2.10;84.50;;;0.19;85.29;96511.19;4988535;28;20038;-71
2021/01/18 04:44:16;;;;;;;11.13;6.18;;;2.20;84.40;;;0.18;85.57;96500.00;4987380;28;20038;-71
2021/01/18 04:46:44;;;;;;;11.48;6.38;;;2.10;84.40;;;0.17;85.57;96498.38;4977552;28;20031;-71
2021/01/18 04:49:11;;;;;;;15.50;7.40;;;2.10;84.40;;;0.17;84.91;96507.88;4985362;28;20503;-71
2021/01/18 04:51:46;;;;;;;10.68;6.72;;;2.10;84.60;;;0.15;85.35;96505.41;4988243;28;20038;-71
2021/01/18 04:54:17;;;;;;;12.13;6.47;;;2.00;84.80;;;0.15;85.22;96504.59;4986166;28;20570;-72
2021/01/18 04:57:07;;;;;;;12.35;6.43;;;2.10;84.80;;;0.14;85.48;96500.38;4986985;28;20046;-71
2021/01/18 04:59:45;;;;;;;11.30;6.75;;;2.10;84.90;;;0.13;85.95;96507.28;4987512;28;20046;-71
2021/01/18 05:02:18;;;;;;;11.32;6.97;;;2.00;85.10;;;0.11;85.12;96500.59;4985346;28;20574;-71
2021/01/18 05:04:52;;;;;;;12.05;6.88;;;1.90;85.30;;;0.11;85.42;96498.00;4974843;28;20034;-71
2021/01/18 05:07:36;;;;;;;12.15;7.20;;;1.90;85.40;;;0.11;86.50;96500.59;4970047;28;20545;-70
2021/01/18 05:10:09;;;;;;;15.02;7.00;;;2.00;85.30;;;0.09;86.09;96495.53;4982058;28;20135;-70
2021/01/18 05:12:37;;;;;;;11.68;6.75;;;2.00;85.10;;;0.09;85.36;96510.22;4984723;28;20038;-68
2021/01/18 05:15:21;;;;;;;11.65;7.30;;;2.00;85.00;;;0.10;86.16;96517.06;4978820;28;20467;-70
2021/01/18 05:17:48;;;;;;;15.57;7.13;;;2.10;84.90;;;0.11;85.38;96513.53;4982889;28;20130;-70
2021/01/18 05:20:15;;;;;;;13.27;6.68;;;2.10;84.90;;;0.12;85.60;96517.75;4989360;28;20170;-66
2021/01/18 05:22:43;;;;;;;11.23;6.55;;;2.10;84.80;;;0.13;85.08;96519.41;4991095;28;20521;-70
2021/01/18 05:25:09;;;;;;;12.70;7.20;;;2.10;84.70;;;0.12;84.92;96525.53;4984706;28;20033;-70
2021/01/18 05:27:56;;;;;;;14.10;7.05;;;2.00;84.90;;;0.12;85.23;96530.69;4991241;28;20526;-70
2021/01/18 05:30:21;;;;;;;13.20;7.28;;;2.10;84.90;;;0.12;85.01;96528.94;4981351;28;20113;-71
2021/01/18 05:32:47;;;;;;;13.43;7.25;;;2.10;85.00;;;0.13;85.05;96529.75;4982549;28;20038;-70
2021/01/18 05:35:13;;;;;;;14.95;7.43;;;2.10;85.00;;;0.07;85.29;96522.47;4974838;28;20042;-71
2021/01/18 05:37:59;;;;;;;12.23;6.95;;;2.10;85.00;;;0.15;86.48;96530.47;5005018;28;20147;-71
2021/01/18 05:40:25;;;;;;;11.77;6.53;;;2.10;84.90;;;0.14;85.50;96529.63;5000041;28;20031;-70
2021/01/18 05:42:51;;;;;;;13.63;7.25;;;2.00;85.00;;;0.14;85.49;96532.22;4984847;28;20038;-70
2021/01/18 05:45:34;;;;;;;15.75;8.00;;;2.00;84.80;;;0.13;85.96;96528.00;4988878;28;20121;-70
2021/01/18 05:48:01;;;;;;;15.60;7.88;;;2.10;85.00;;;0.13;85.33;96532.34;4988790;28;20038;-71
2021/01/18 05:50:27;;;;;;;13.15;7.63;;;2.10;84.70;;;0.13;85.01;96535.75;4971850;28;20026;-70
2021/01/18 05:52:52;;;;;;;14.00;7.75;;;2.00;84.70;;;0.13;84.90;96540.94;4988694;28;20061;-70
2021/01/18 05:55:25;;;;;;;14.38;7.95;;;2.10;84.80;;;0.13;85.46;96542.69;4988459;28;20458;-70
2021/01/18 05:57:53;;;;;;;13.23;7.25;;;2.10;84.80;;;0.14;85.14;96545.16;4986835;28;20042;-70
2021/01/18 06:00:36;;;;;;;14.02;7.38;;;2.10;84.70;;;0.15;85.84;96545.97;4988572;28;20031;-70
2021/01/18 06:03:09;;;;;;;14.98;7.72;;;2.10;84.60;;;0.15;86.00;96549.38;4988352;28;20522;-71
2021/01/18 06:05:39;;;;;;;18.13;8.60;;;2.10;84.70;;;0.15;85.77;96545.97;4971565;28;20534;-70
2021/01/18 06:08:14;;;;;;;19.43;9.97;;;2.10;84.90;;;0.13;85.60;96543.50;4988134;28;20092;-70
2021/01/18 06:10:41;;;;;;;13.70;7.57;;;2.00;85.10;;;0.14;85.07;96557.28;4988485;28;20270;-71
2021/01/18 06:13:24;;;;;;;13.93;7.90;;;2.00;85.80;;;0.11;86.01;96547.97;4988574;28;20110;-70
2021/01/18 06:16:10;;;;;;;16.15;7.80;;;2.00;85.70;;;0.11;86.68;96557.50;4985781;28;20038;-69
2021/01/18 06:18:40;;;;;;;15.35;8.10;;;1.90;86.00;;;0.10;85.68;96563.59;4986197;28;20027;-69
2021/01/18 06:21:12;;;;;;;14.15;8.07;;;2.00;86.00;;;0.09;85.95;96556.78;4983260;28;20034;-66
2021/01/18 06:23:39;;;;;;;16.50;7.88;;;2.00;85.90;;;0.10;85.85;96559.25;4986953;28;20026;-70
2021/01/18 06:26:05;;;;;;;16.67;7.57;;;2.10;85.50;;;0.11;85.48;96547.16;4986642;28;20110;-69
2021/01/18 06:28:35;;;;;;;13.40;7.35;;;2.10;85.50;;;0.10;85.75;96555.84;4987989;28;20039;-68
2021/01/18 06:31:05;;;;;;;13.75;7.40;;;2.10;85.50;;;0.10;86.16;96558.44;4970656;28;20038;-69
2021/01/18 06:33:42;;;;;;;15.38;7.68;;;2.10;85.50;;;0.09;86.72;96556.78;4987763;28;20038;-71
2021/01/18 06:36:21;;;;;;;13.55;6.90;;;2.00;85.40;;;0.16;86.38;96552.81;4982440;28;20053;-63
2021/01/18 06:38:59;;;;;;;13.85;6.55;;;2.10;85.30;;;0.16;86.78;96568.31;4985040;28;20069;-66
2021/01/18 06:41:29;;;;;;;11.55;6.82;;;2.10;85.40;;;0.15;86.00;96566.69;4974517;28;20046;-65
2021/01/18 06:43:55;;;;;;;14.25;7.18;;;2.10;85.40;;;0.16;85.61;96568.31;4988982;28;20042;-69
2021/01/18 06:46:24;;;;;;;11.35;6.80;;;2.10;85.10;;;0.17;85.58;96577.72;4989887;28;20049;-68
2021/01/18 06:48:51;;;;;;;11.07;6.50;;;2.10;85.10;;;0.17;85.85;96585.50;4992216;28;20113;-69
2021/01/18 06:51:26;;;;;;;12.75;6.15;;;2.10;85.10;;;0.16;86.11;96578.66;4990412;28;20544;-69
2021/01/18 06:53:53;;;;;;;13.02;6.97;;;2.10;85.10;;;0.17;85.76;96588.91;4990101;28;20136;-69
2021/01/18 06:56:22;;;;;;;12.63;6.82;;;2.10;85.10;;;0.17;86.06;96593.25;4989813;28;20046;-68
2021/01/18 06:59:27;;;;;;;12.27;6.55;;;2.00;85.10;;;0.17;86.88;96595.84;4989812;28;20031;-70
2021/01/18 07:02:15;;;;;;;12.23;6.72;;;2.10;85.10;;;0.19;85.70;96593.97;4988013;28;20121;-69
2021/01/18 07:04:46;;;;;;;13.70;7.03;;;2.10;84.70;;;0.19;85.58;96604.31;4974191;28;20109;-67
2021/01/18 07:07:27;;;;;;;14.80;7.20;;;2.10;84.90;;;0.20;85.67;96603.38;4991095;28;20038;-67
2021/01/18 07:10:00;;;;;;;14.45;7.00;;;2.10;84.70;;;0.19;85.97;96604.31;4990292;28;20046;-70
2021/01/18 07:12:26;;;;;;;9.73;6.35;;;2.10;84.70;;;0.19;85.74;96604.31;4991209;28;20026;-69
2021/01/18 07:14:57;;;;;;;14.60;7.68;;;2.10;85.00;;;0.20;85.64;96608.53;4992122;28;20137;-67
2021/01/18 07:17:43;;;;;;;13.02;7.80;;;2.10;84.90;;;0.20;86.06;96611.13;4988545;28;20509;-67
2021/01/18 07:20:21;;;;;;;15.43;8.35;;;2.10;85.00;;;0.20;86.00;96614.53;5006300;28;20041;-67
2021/01/18 07:23:15;;;;;;;12.75;7.63;;;2.10;84.80;;;0.22;86.50;96617.00;5009653;28;20034;-70
2021/01/18 07:25:45;;;;;;;16.52;8.70;;;2.20;84.80;;;0.23;86.06;96621.28;5004244;28;20034;-66
2021/01/18 07:28:29;;;;;;;14.50;7.55;;;2.20;84.70;;;0.24;86.15;96621.16;5008886;28;20410;-67
2021/01/18 07:30:55;;;;;;;13.77;7.22;;;2.20;84.70;;;0.24;85.64;96628.09;5011952;28;20100;-68
2021/01/18 07:33:20;;;;;;;11.32;6.40;;;2.20;84.60;;;0.25;85.32;96624.56;5010229;28;20033;-68
2021/01/18 07:35:46;;;;;;;11.27;7.05;;;2.20;84.70;;;0.26;85.07;96632.22;5010105;28;20043;-70
2021/01/18 07:38:16;;;;;;;12.57;7.15;;;2.20;84.70;;;0.27;85.86;96633.03;5008790;28;20030;-68
2021/01/18 07:41:08;;;;;;;10.18;6.20;;;2.20;85.00;;;0.27;86.25;96633.03;5011627;28;20100;-67
2021/01/18 07:43:44;;;;;;;14.07;6.75;;;2.20;85.10;;;0.27;86.01;96644.22;5010333;28;20040;-68
2021/01/18 07:46:25;;;;;;;12.38;7.50;;;2.20;84.90;;;0.28;86.31;96645.03;5010911;28;20038;-68
2021/01/18 07:48:54;;;;;;;12.05;6.80;;;2.20;84.90;;;0.28;85.72;96651.03;5010573;28;20524;-69
2021/01/18 07:51:21;;;;;;;11.32;6.55;;;2.20;85.20;;;0.29;85.64;96644.09;5011667;28;20046;-68
2021/01/18 07:53:47;;;;;;;11.48;6.32;;;2.30;84.90;;;0.32;85.62;96651.63;5011225;28;20510;-68
2021/01/18 07:56:23;;;;;;;10.57;7.07;;;2.30;84.90;;;0.30;86.75;96650.94;5010334;28;20180;-69
2021/01/18 07:59:07;;;;;;;16.13;9.57;;;2.40;84.80;;;0.32;86.63;96656.81;4989109;28;20034;-72
2021/01/18 08:01:36;;;;;;;14.13;7.60;;;2.30;85.50;;;0.34;86.09;96654.94;5010570;28;20124;-70
2021/01/18 08:04:20;;;;;;;13.27;6.70;;;2.30;85.60;;;0.34;86.98;96662.69;4993598;28;20042;-65
2021/01/18 08:07:09;;;;;;;12.45;6.80;;;2.30;85.90;;;0.33;86.61;96661.06;5010940;28;20034;-67
2021/01/18 08:09:36;;;;;;;11.68;7.03;;;2.20;85.90;;;0.33;85.80;96663.63;4999591;28;20038;-67
2021/01/18 08:12:35;;;;;;;12.57;7.32;;;2.30;85.60;;;0.35;87.08;96676.47;5010086;28;20120;-68
2021/01/18 08:15:10;;;;;;;14.35;7.10;;;2.30;85.60;;;0.34;85.98;96664.47;5011358;28;20034;-65
2021/01/18 08:17:36;;;;;;;12.52;6.80;;;2.30;85.20;;;0.36;85.64;96676.34;5001404;28;20418;-66
2021/01/18 08:20:21;;;;;;;12.93;6.90;;;2.40;85.00;;;0.37;86.05;96678.00;5010165;28;20045;-68
2021/01/18 08:22:47;;;;;;;12.30;6.53;;;2.30;85.10;;;0.40;85.61;96675.19;5007885;28;20046;-69
2021/01/18 08:25:13;;;;;;;14.27;7.80;;;2.30;85.00;;;0.42;85.83;96683.66;4992521;28;20044;-66
2021/01/18 08:27:42;;;;;;;15.00;8.82;;;2.40;85.00;;;0.42;86.40;96681.06;4998960;28;20099;-71
2021/01/18 08:30:26;;;;;;;13.32;7.57;;;2.40;85.00;;;0.46;85.96;96690.28;5009351;28;20033;-72
2021/01/18 08:32:56;;;;;;;10.80;6.63;;;2.40;84.70;;;0.45;86.21;96683.44;5011177;28;20136;-67
2021/01/18 08:35:31;;;;;;;15.63;7.97;;;2.40;84.80;;;0.48;86.20;96693.59;5009242;28;20041;-68
2021/01/18 08:38:08;;;;;;;17.67;9.13;;;2.40;84.50;;;0.48;86.19;96696.16;5008887;28;20088;-67
2021/01/18 08:40:44;;;;;;;15.57;8.60;;;2.30;84.80;;;0.44;85.89;96694.72;5003151;28;20038;-67
2021/01/18 08:43:11;;;;;;;12.23;6.40;;;2.30;84.80;;;0.48;85.49;96703.09;5009210;28;20521;-67
2021/01/18 08:45:38;;;;;;;12.70;6.70;;;2.30;84.60;;;0.47;85.28;96699.69;5009576;28;20060;-70
2021/01/18 08:48:06;;;;;;;12.95;6.47;;;2.40;84.50;;;0.43;85.45;96689.66;5009391;28;20041;-69
2021/01/18 08:50:54;;;;;;;12.32;6.35;;;2.40;84.30;;;0.48;85.84;96692.75;5009099;28;20042;-64
2021/01/18 08:53:53;;;;;;;12.65;6.40;;;2.40;84.20;;;0.50;85.87;96702.06;5009715;28;20647;-72
2021/01/18 08:56:25;;;;;;;12.82;6.13;;;2.40;83.90;;;0.52;85.84;96699.34;4992054;28;20045;-65
2021/01/18 08:58:51;;;;;;;15.80;6.60;;;2.40;84.10;;;0.55;85.56;96705.13;5008051;28;20108;-69
2021/01/18 09:01:27;;;;;;;12.23;6.68;;;2.50;85.00;;;0.52;85.19;96695.00;4991103;28;20502;-70
2021/01/18 09:04:06;;;;;;;11.05;6.22;;;2.70;83.80;;;0.62;85.46;96705.50;5010219;28;20501;-69
2021/01/18 09:06:32;;;;;;;11.85;6.15;;;2.60;83.80;;;0.64;85.82;96707.97;5003149;28;20125;-70
2021/01/18 09:09:05;;;;;;;12.38;6.50;;;2.70;84.50;;;0.65;85.71;96714.78;4988186;28;20121;-72
2021/01/18 09:11:32;;;;;;;17.35;6.70;;;2.60;84.00;;;0.62;84.96;96702.91;5009316;28;20044;-67
2021/01/18 09:13:58;;;;;;;15.57;7.40;;;2.60;83.70;;;0.69;84.77;96705.88;4976778;28;20042;-68
2021/01/18 09:16:24;;;;;;;13.48;6.30;;;2.70;83.60;;;0.74;84.96;96716.72;5009880;28;20069;-68
2021/01/18 09:18:49;;;;;;;14.45;6.60;;;2.70;83.30;;;0.79;85.51;96712.84;5008454;28;20089;-67
2021/01/18 09:21:16;;;;;;;13.35;7.13;;;2.90;83.00;;;0.85;85.48;96725.34;5007740;28;20037;-68
2021/01/18 09:23:42;;;;;;;10.02;6.10;;;3.00;82.20;;;0.90;84.49;96722.41;4993160;28;20041;-66
2021/01/18 09:26:15;;;;;;;8.20;5.50;;;3.00;82.00;;;0.92;84.80;96712.78;4991307;28;20511;-69
2021/01/18 09:28:50;;;;;;;9.20;5.70;;;3.20;81.20;;;1.04;84.48;96722.19;5007946;28;20247;-67
2021/01/18 09:31:16;;;;;;;10.57;6.13;;;3.20;80.80;;;1.13;84.49;96724.13;5008520;28;20033;-69
2021/01/18 09:33:42;;;;;;;10.90;5.53;;;3.40;80.40;;;1.18;84.56;96716.81;5008500;28;20517;-69
2021/01/18 09:36:13;;;;;;;11.02;5.45;;;3.30;79.60;;;1.17;83.78;96712.59;4988120;28;20035;-68
2021/01/18 09:38:41;;;;;;;10.05;5.57;;;3.40;79.90;;;1.25;83.88;96724.13;5022535;28;20034;-71
2021/01/18 09:41:06;;;;;;;16.85;5.40;;;3.30;79.30;;;1.29;83.79;96723.78;5008582;28;20133;-70
2021/01/18 09:43:32;;;;;;;11.02;5.63;;;3.40;79.60;;;1.30;84.24;96728.00;5008401;28;20040;-71
2021/01/18 09:45:58;;;;;;;12.93;6.95;;;3.30;79.60;;;1.33;83.56;96735.53;5008350;28;20022;-70
2021/01/18 09:48:27;;;;;;;16.58;7.15;;;3.40;79.40;;;1.37;83.23;96737.00;4991229;28;20042;-67
2021/01/18 09:51:07;;;;;;;17.15;9.38;;;3.40;79.40;;;1.44;82.43;96729.56;5014807;28;20038;-67
2021/01/18 09:53:33;;;;;;;13.07;6.32;;;3.60;78.80;;;1.43;83.43;96728.75;5008633;28;20038;-67
2021/01/18 09:56:08;;;;;;;11.35;5.90;;;3.40;79.40;;;1.42;82.90;96736.63;5007641;28;20474;-68
2021/01/18 09:58:58;;;;;;;10.63;5.70;;;3.40;79.50;;;1.36;82.56;96731.91;4991008;28;20060;-68
2021/01/18 10:01:26;;;;;;;10.82;5.85;;;3.40;79.80;;;1.32;83.60;96727.91;4978493;28;20042;-68
2021/01/18 10:03:57;;;;;;;12.35;6.28;;;3.30;81.10;;;1.37;83.93;96734.41;4991904;28;20311;-69
2021/01/18 10:06:30;;;;;;;19.98;9.50;;;3.40;80.70;;;1.33;83.90;96737.31;4992120;28;20041;-68
2021/01/18 10:09:09;;;;;;;13.45;5.60;;;3.30;81.20;;;1.32;83.31;96728.72;4991447;28;20052;-69
2021/01/18 10:11:49;;;;;;;11.15;6.25;;;3.20;82.50;;;1.29;83.69;96735.91;5009595;28;20033;-67
2021/01/18 10:14:22;;;;;;;14.50;7.43;;;3.20;83.20;;;1.25;83.05;96727.53;4991162;28;20578;-71
2021/01/18 10:17:09;;;;;;;13.90;6.07;;;3.10;82.90;;;1.21;83.65;96726.13;5007767;28;20473;-71
2021/01/18 10:19:39;;;;;;;10.70;5.93;;;3.00;82.60;;;1.13;83.59;96724.13;4995052;28;20397;-69
2021/01/18 10:22:13;;;;;;;8.45;5.20;;;3.10;82.70;;;1.17;83.95;96741.09;5007299;28;20125;-74
2021/01/18 10:24:39;;;;;;;12.18;5.57;;;3.20;82.70;;;1.16;84.21;96736.84;4993298;28;20038;-68
2021/01/18 10:27:12;;;;;;;12.27;5.80;;;3.10;81.90;;;1.17;84.28;96727.31;4975003;28;20061;-68
2021/01/18 10:29:38;;;;;;;12.02;5.47;;;3.20;82.30;;;1.17;83.90;96728.13;4991359;28;20060;-66
2021/01/18 10:32:05;;;;;;;10.43;5.38;;;3.20;81.60;;;1.18;83.56;96732.38;4986688;28;20046;-67
2021/01/18 10:34:34;;;;;;;10.18;5.22;;;3.30;81.70;;;1.19;84.28;96739.19;4994254;28;20033;-67
2021/01/18 10:37:14;;;;;;;11.70;5.55;;;3.10;82.40;;;1.16;84.05;96731.66;5008699;28;20046;-67
2021/01/18 10:39:41;;;;;;;10.07;5.22;;;3.10;81.90;;;1.19;83.36;96730.59;4987142;28;20038;-67
2021/01/18 10:42:19;;;;;;;9.90;5.28;;;3.20;81.70;;;1.17;84.09;96733.31;5007298;28;20506;-67
2021/01/18 10:44:53;;;;;;;13.38;5.72;;;3.10;82.00;;;1.16;84.11;96731.66;5008264;28;20037;-70